createdAt,value
2022-08-27T00:01:49.583Z,10.32
2022-08-27T00:04:16.929Z,14.07
2022-08-27T00:06:47.412Z,9.73
2022-08-27T00:09:14.854Z,11.48
2022-08-27T00:11:43.816Z,9.68
2022-08-27T00:14:11.433Z,17.58
2022-08-27T00:16:39.511Z,15.98
2022-08-27T00:19:06.902Z,9.65
2022-08-27T00:21:34.288Z,14.23
2022-08-27T00:24:01.558Z,13.85
2022-08-27T00:26:29.275Z,11.15
2022-08-27T00:28:57.387Z,9.38
2022-08-27T00:31:27.333Z,15.75
2022-08-27T00:33:55.638Z,10.10
2022-08-27T00:36:22.992Z,11.27
2022-08-27T00:38:53.794Z,11.63
2022-08-27T00:41:21.940Z,12.20
2022-08-27T00:43:54.046Z,10.25
2022-08-27T00:46:44.819Z,11.05
2022-08-27T00:49:19.629Z,10.88
2022-08-27T00:52:00.619Z,11.88
2022-08-27T00:54:28.805Z,11.70
2022-08-27T00:59:29.357Z,11.98
2022-08-27T01:02:16.698Z,15.65
2022-08-27T01:04:47.583Z,11.85
2022-08-27T01:07:14.847Z,9.63
2022-08-27T01:09:45.153Z,7.95
2022-08-27T01:12:14.630Z,12.35
2022-08-27T01:14:44.563Z,15.07
2022-08-27T01:17:13.541Z,7.45
2022-08-27T01:19:40.476Z,14.38
2022-08-27T01:22:30.961Z,12.35
2022-08-27T01:25:02.768Z,9.90
2022-08-27T01:27:34.507Z,12.20
2022-08-27T01:30:02.713Z,10.25
2022-08-27T01:32:33.912Z,10.02
2022-08-27T01:35:02.736Z,8.20
2022-08-27T01:37:29.959Z,11.88
2022-08-27T01:40:01.800Z,10.60
2022-08-27T01:42:40.232Z,13.57
2022-08-27T01:45:38.637Z,12.13
2022-08-27T01:48:08.239Z,14.10
2022-08-27T01:50:39.050Z,11.43
2022-08-27T01:53:12.812Z,12.55
2022-08-27T01:55:43.456Z,16.52
2022-08-27T01:58:16.309Z,9.10
2022-08-27T02:00:46.916Z,12.07
2022-08-27T02:03:14.074Z,13.90
2022-08-27T02:05:42.265Z,16.55
2022-08-27T02:08:13.484Z,15.40
2022-08-27T02:10:40.794Z,11.82
2022-08-27T02:13:08.465Z,13.38
2022-08-27T02:15:40.500Z,8.38
2022-08-27T02:18:08.507Z,11.98
2022-08-27T02:20:37.108Z,14.35
2022-08-27T02:23:05.080Z,7.38
2022-08-27T02:25:34.164Z,9.23
2022-08-27T02:28:02.150Z,9.93
2022-08-27T02:30:32.227Z,12.90
2022-08-27T02:33:01.130Z,10.48
2022-08-27T02:35:30.300Z,10.82
2022-08-27T02:37:58.453Z,11.48
2022-08-27T02:40:26.466Z,16.10
2022-08-27T02:42:54.109Z,20.10
2022-08-27T02:45:21.820Z,11.55
2022-08-27T02:47:48.918Z,8.15
2022-08-27T02:50:17.449Z,15.13
2022-08-27T02:52:46.470Z,11.90
2022-08-27T02:55:17.253Z,10.27
2022-08-27T02:57:45.614Z,9.93
2022-08-27T03:00:16.417Z,13.13
2022-08-27T03:03:10.817Z,10.93
2022-08-27T03:05:39.796Z,9.82
2022-08-27T03:08:07.957Z,11.07
2022-08-27T03:10:35.373Z,9.55
2022-08-27T03:13:02.789Z,15.23
2022-08-27T03:15:29.838Z,8.48
2022-08-27T03:18:15.462Z,11.82
2022-08-27T03:20:44.700Z,15.55
2022-08-27T03:23:14.733Z,14.90
2022-08-27T03:25:51.508Z,10.13
2022-08-27T03:28:23.294Z,13.02
2022-08-27T03:30:59.025Z,10.18
2022-08-27T03:33:29.142Z,10.20
2022-08-27T03:35:56.378Z,15.70
2022-08-27T03:38:25.204Z,9.90
2022-08-27T03:40:55.108Z,12.10
2022-08-27T03:43:23.579Z,9.65
2022-08-27T03:46:01.851Z,14.85
2022-08-27T03:48:32.050Z,13.95
2022-08-27T03:50:59.800Z,10.82
2022-08-27T03:53:28.355Z,14.90
2022-08-27T03:55:55.581Z,21.00
2022-08-27T03:58:22.706Z,18.83
2022-08-27T04:00:49.715Z,17.50
2022-08-27T04:03:19.870Z,23.58
2022-08-27T04:05:52.885Z,23.70
2022-08-27T04:08:20.189Z,33.55
2022-08-27T04:10:48.015Z,28.35
2022-08-27T04:13:15.410Z,18.70
2022-08-27T04:15:44.705Z,25.23
2022-08-27T04:18:12.768Z,16.08
2022-08-27T04:20:39.786Z,12.45
2022-08-27T04:23:07.232Z,16.20
2022-08-27T04:25:36.575Z,9.07
2022-08-27T04:28:03.924Z,8.98
2022-08-27T04:30:31.557Z,12.35
2022-08-27T04:32:59.485Z,12.98
2022-08-27T04:35:26.856Z,11.63
2022-08-27T04:37:54.356Z,9.38
2022-08-27T04:40:21.409Z,12.35
2022-08-27T04:42:52.864Z,11.15
2022-08-27T04:45:21.330Z,7.05
2022-08-27T04:47:48.675Z,12.65
2022-08-27T04:50:16.187Z,10.13
2022-08-27T04:52:43.688Z,14.60
2022-08-27T04:55:11.810Z,11.15
2022-08-27T05:00:14.083Z,8.20
2022-08-27T05:02:41.126Z,14.95
2022-08-27T05:05:15.451Z,15.95
2022-08-27T05:07:43.991Z,12.63
2022-08-27T05:10:14.192Z,8.95
2022-08-27T05:12:44.262Z,8.73
2022-08-27T05:15:12.018Z,8.93
2022-08-27T05:17:39.125Z,21.75
2022-08-27T05:20:08.434Z,12.40
2022-08-27T05:22:39.734Z,10.32
2022-08-27T05:25:08.082Z,13.30
2022-08-27T05:30:02.411Z,10.35
2022-08-27T05:32:29.655Z,11.00
2022-08-27T05:34:56.806Z,15.50
2022-08-27T05:37:24.251Z,8.35
2022-08-27T05:39:51.307Z,15.55
2022-08-27T05:42:19.777Z,10.07
2022-08-27T05:44:47.090Z,8.88
2022-08-27T05:47:14.116Z,10.00
2022-08-27T05:49:41.340Z,10.70
2022-08-27T05:52:12.695Z,12.10
2022-08-27T05:54:50.089Z,9.02
2022-08-27T05:57:17.855Z,6.53
2022-08-27T06:00:03.658Z,10.18
2022-08-27T06:02:31.225Z,9.98
2022-08-27T06:04:58.555Z,8.85
2022-08-27T06:07:25.655Z,11.65
2022-08-27T06:09:52.938Z,19.42
2022-08-27T06:12:28.067Z,14.63
2022-08-27T06:14:56.647Z,17.38
2022-08-27T06:17:23.834Z,11.05
2022-08-27T06:19:51.157Z,14.77
2022-08-27T06:22:18.425Z,6.68
2022-08-27T06:24:46.715Z,14.13
2022-08-27T06:27:22.594Z,10.70
2022-08-27T06:29:51.497Z,12.82
2022-08-27T06:32:18.856Z,10.80
2022-08-27T06:34:45.807Z,9.95
2022-08-27T06:37:13.115Z,13.85
2022-08-27T06:39:40.606Z,12.90
2022-08-27T06:42:11.999Z,13.02
2022-08-27T06:44:40.405Z,15.88
2022-08-27T06:49:58.877Z,12.25
2022-08-27T06:52:26.519Z,11.45
2022-08-27T06:57:37.614Z,14.70
2022-08-27T07:00:07.672Z,11.30
2022-08-27T07:02:35.090Z,13.10
2022-08-27T07:05:12.061Z,16.92
2022-08-27T07:07:44.179Z,10.57
2022-08-27T07:10:15.392Z,11.10
2022-08-27T07:12:51.160Z,11.05
2022-08-27T07:15:25.898Z,8.93
2022-08-27T07:17:58.840Z,15.60
2022-08-27T07:20:29.569Z,14.40
2022-08-27T07:23:03.270Z,19.85
2022-08-27T07:25:48.159Z,15.52
2022-08-27T07:28:16.342Z,15.48
2022-08-27T07:30:43.659Z,11.05
2022-08-27T07:33:11.349Z,14.98
2022-08-27T07:35:40.012Z,14.55
2022-08-27T07:38:13.281Z,11.10
2022-08-27T07:43:40.911Z,14.40
2022-08-27T07:46:08.354Z,13.48
2022-08-27T07:48:38.001Z,11.50
2022-08-27T07:51:05.629Z,16.80
2022-08-27T07:53:35.431Z,15.63
2022-08-27T07:56:04.540Z,10.18
2022-08-27T08:01:34.132Z,11.27
2022-08-27T08:04:01.506Z,11.02
2022-08-27T08:06:32.639Z,12.70
2022-08-27T08:09:13.121Z,7.75
2022-08-27T08:11:53.320Z,10.10
2022-08-27T08:14:23.480Z,13.57
2022-08-27T08:16:50.945Z,13.45
2022-08-27T08:19:20.707Z,9.52
2022-08-27T08:21:47.817Z,11.02
2022-08-27T08:24:18.266Z,13.93
2022-08-27T08:26:45.484Z,13.57
2022-08-27T08:29:18.058Z,19.13
2022-08-27T08:31:50.411Z,14.43
2022-08-27T08:34:19.782Z,14.10
2022-08-27T08:36:53.990Z,13.82
2022-08-27T08:39:22.552Z,13.70
2022-08-27T08:41:58.371Z,11.73
2022-08-27T08:45:07.892Z,14.27
2022-08-27T08:47:51.744Z,9.40
2022-08-27T08:51:04.728Z,17.25
2022-08-27T08:53:39.746Z,14.35
2022-08-27T08:56:29.585Z,14.20
2022-08-27T08:59:10.357Z,11.00
2022-08-27T09:04:35.739Z,15.65
2022-08-27T09:07:31.149Z,16.52
2022-08-27T09:10:27.029Z,10.90
2022-08-27T09:12:59.438Z,9.73
2022-08-27T09:15:33.913Z,14.90
2022-08-27T09:18:14.775Z,12.75
2022-08-27T09:20:48.331Z,21.15
2022-08-27T09:23:28.447Z,18.55
2022-08-27T09:25:56.537Z,11.90
2022-08-27T09:35:13.937Z,12.07
2022-08-27T09:38:07.576Z,13.25
2022-08-27T09:40:52.107Z,9.02
2022-08-27T09:43:29.398Z,16.95
2022-08-27T09:46:21.730Z,13.95
2022-08-27T09:52:48.848Z,12.88
2022-08-27T09:55:38.051Z,13.77
2022-08-27T09:58:30.615Z,13.85
2022-08-27T10:01:21.258Z,13.07
2022-08-27T10:03:55.360Z,15.70
2022-08-27T10:06:33.048Z,14.38
2022-08-27T10:12:23.263Z,15.85
2022-08-27T10:14:55.364Z,14.30
2022-08-27T10:17:28.963Z,15.00
2022-08-27T10:20:17.258Z,15.25
2022-08-27T10:27:08.661Z,10.27
2022-08-27T10:29:52.153Z,10.90
2022-08-27T10:32:55.236Z,20.70
2022-08-27T10:35:28.543Z,15.15
2022-08-27T10:38:21.835Z,15.63
2022-08-27T10:41:02.813Z,16.08
2022-08-27T10:44:02.347Z,13.02
2022-08-27T10:47:11.265Z,16.13
2022-08-27T10:49:58.932Z,16.10
2022-08-27T10:52:53.438Z,23.98
2022-08-27T10:55:38.918Z,13.77
2022-08-27T11:02:12.201Z,14.95
2022-08-27T11:04:49.672Z,13.93
2022-08-27T11:07:43.281Z,12.48
2022-08-27T11:10:20.954Z,19.67
2022-08-27T11:12:51.888Z,12.70
2022-08-27T11:15:38.261Z,12.95
2022-08-27T11:18:41.001Z,10.63
2022-08-27T11:22:02.462Z,16.08
2022-08-27T11:27:43.524Z,10.98
2022-08-27T11:30:29.909Z,12.40
2022-08-27T11:33:02.728Z,12.95
2022-08-27T11:36:08.823Z,14.50
2022-08-27T11:39:02.007Z,13.50
2022-08-27T11:44:32.525Z,10.55
2022-08-27T11:47:24.911Z,10.15
2022-08-27T11:49:56.407Z,11.23
2022-08-27T11:53:09.197Z,9.30
2022-08-27T11:55:40.424Z,9.40
2022-08-27T11:58:26.543Z,15.05
2022-08-27T12:00:54.563Z,15.48
2022-08-27T12:03:21.951Z,15.73
2022-08-27T12:05:52.889Z,13.43
2022-08-27T12:08:22.995Z,12.85
2022-08-27T12:11:19.001Z,14.75
2022-08-27T12:14:11.187Z,12.90
2022-08-27T12:16:48.847Z,11.50
2022-08-27T12:19:44.276Z,10.43
2022-08-27T12:22:26.670Z,19.73
2022-08-27T12:25:20.298Z,12.05
2022-08-27T12:28:06.744Z,14.02
2022-08-27T12:30:35.503Z,15.05
2022-08-27T12:33:27.538Z,11.85
2022-08-27T12:36:13.740Z,13.27
2022-08-27T12:39:05.363Z,19.33
2022-08-27T12:41:44.278Z,12.50
2022-08-27T12:47:18.496Z,12.57
2022-08-27T12:49:55.883Z,16.42
2022-08-27T12:52:33.449Z,14.05
2022-08-27T12:55:16.858Z,11.98
2022-08-27T12:58:00.629Z,16.55
2022-08-27T13:00:37.970Z,12.30
2022-08-27T13:06:29.336Z,16.20
2022-08-27T13:09:13.451Z,13.50
2022-08-27T13:11:50.354Z,10.75
2022-08-27T13:14:20.677Z,13.18
2022-08-27T13:16:59.515Z,16.23
2022-08-27T13:19:32.131Z,13.80
2022-08-27T13:22:01.746Z,11.65
2022-08-27T13:24:45.803Z,12.93
2022-08-27T13:27:13.587Z,14.68
2022-08-27T13:29:42.710Z,17.40
2022-08-27T13:32:14.552Z,12.18
2022-08-27T13:34:42.504Z,14.25
2022-08-27T13:37:30.608Z,17.10
2022-08-27T13:40:10.105Z,12.73
2022-08-27T13:42:48.119Z,17.00
2022-08-27T13:45:17.960Z,16.58
2022-08-27T13:47:48.028Z,16.65
2022-08-27T13:50:25.824Z,13.57
2022-08-27T13:53:20.169Z,13.75
2022-08-27T13:55:49.793Z,17.15
2022-08-27T13:58:27.206Z,15.55
2022-08-27T14:00:55.867Z,11.82
2022-08-27T14:03:35.579Z,11.77
2022-08-27T14:06:03.167Z,15.60
2022-08-27T14:08:36.239Z,8.07
2022-08-27T14:11:13.080Z,12.93
2022-08-27T14:13:45.187Z,14.02
2022-08-27T14:16:23.938Z,10.32
2022-08-27T14:19:02.772Z,12.70
2022-08-27T14:21:35.713Z,11.88
2022-08-27T14:24:03.536Z,16.63
2022-08-27T14:28:59.473Z,8.27
2022-08-27T14:31:27.673Z,10.18
2022-08-27T14:33:56.126Z,10.40
2022-08-27T14:36:25.268Z,15.90
2022-08-27T14:38:52.951Z,11.48
2022-08-27T14:41:22.191Z,15.98
2022-08-27T14:55:21.434Z,13.55
2022-08-27T14:57:49.758Z,16.83
2022-08-27T15:01:02.561Z,14.13
2022-08-27T15:03:30.541Z,15.10
2022-08-27T15:05:57.670Z,18.95
2022-08-27T15:08:29.079Z,11.65
2022-08-27T15:14:11.590Z,14.13
2022-08-27T15:16:47.009Z,16.60
2022-08-27T15:19:20.531Z,8.10
2022-08-27T15:21:50.536Z,11.35
2022-08-27T15:24:26.473Z,14.13
2022-08-27T15:27:01.842Z,9.48
2022-08-27T15:31:57.445Z,7.75
2022-08-27T15:34:24.939Z,7.40
2022-08-27T15:36:52.090Z,9.80
2022-08-27T15:39:19.685Z,8.95
2022-08-27T15:42:05.164Z,9.98
2022-08-27T15:44:33.929Z,10.00
2022-08-27T15:47:00.982Z,11.82
2022-08-27T15:49:28.455Z,15.20
2022-08-27T15:51:55.989Z,9.90
2022-08-27T15:54:27.145Z,12.93
2022-08-27T15:56:54.475Z,13.55
2022-08-27T15:59:21.789Z,15.32
2022-08-27T16:01:49.009Z,11.90
2022-08-27T16:04:16.348Z,16.58
2022-08-27T16:06:43.759Z,13.38
2022-08-27T16:09:11.772Z,13.20
2022-08-27T16:11:41.154Z,23.83
2022-08-27T16:14:11.487Z,14.85
2022-08-27T16:16:40.419Z,11.02
2022-08-27T16:19:12.577Z,14.75
2022-08-27T16:21:48.246Z,14.25
2022-08-27T16:24:21.698Z,10.48
2022-08-27T16:26:50.579Z,12.98
2022-08-27T16:29:17.999Z,10.35
2022-08-27T16:31:49.877Z,15.30
2022-08-27T16:34:21.673Z,14.80
2022-08-27T16:36:48.812Z,18.85
2022-08-27T16:39:15.833Z,11.05
2022-08-27T16:41:50.534Z,11.73
2022-08-27T16:44:18.527Z,15.15
2022-08-27T16:46:45.981Z,14.45
2022-08-27T16:49:31.670Z,16.98
2022-08-27T16:52:01.486Z,13.05
2022-08-27T16:54:29.189Z,16.85
2022-08-27T16:56:59.266Z,15.88
2022-08-27T16:59:26.793Z,14.13
2022-08-27T17:02:07.436Z,18.33
2022-08-27T17:04:41.878Z,16.30
2022-08-27T17:07:09.725Z,18.80
2022-08-27T17:12:37.369Z,21.50
2022-08-27T17:15:08.460Z,15.63
2022-08-27T17:17:38.529Z,22.25
2022-08-27T17:20:08.559Z,15.93
2022-08-27T17:22:35.905Z,19.42
2022-08-27T17:25:04.057Z,14.02
2022-08-27T17:27:31.575Z,16.00
2022-08-27T17:29:58.712Z,15.55
2022-08-27T17:32:26.785Z,24.65
2022-08-27T17:34:54.324Z,15.23
2022-08-27T17:37:21.553Z,18.38
2022-08-27T17:39:49.176Z,17.10
2022-08-27T17:42:17.963Z,17.55
2022-08-27T17:44:44.920Z,13.38
2022-08-27T17:47:12.518Z,16.73
2022-08-27T17:49:39.898Z,23.20
2022-08-27T17:52:13.367Z,20.17
2022-08-27T17:54:45.999Z,18.88
2022-08-27T17:57:25.751Z,19.73
2022-08-27T17:59:54.579Z,22.30
2022-08-27T18:02:38.982Z,19.17
2022-08-27T18:05:09.036Z,20.90
2022-08-27T18:07:39.810Z,20.67
2022-08-27T18:10:12.646Z,22.02
2022-08-27T18:12:41.331Z,40.33
2022-08-27T18:15:28.071Z,33.40
2022-08-27T18:17:59.252Z,18.58
2022-08-27T18:20:42.734Z,16.67
2022-08-27T18:23:14.656Z,24.10
2022-08-27T18:25:46.140Z,19.38
2022-08-27T18:28:16.312Z,30.60
2022-08-27T18:30:44.889Z,22.95
2022-08-27T18:33:13.105Z,30.33
2022-08-27T18:35:42.266Z,20.88
2022-08-27T18:38:10.259Z,18.00
2022-08-27T18:40:44.243Z,22.98
2022-08-27T18:43:15.990Z,24.65
2022-08-27T18:45:43.479Z,39.05
2022-08-27T18:48:16.875Z,20.63
2022-08-27T18:50:50.708Z,18.67
2022-08-27T18:53:21.636Z,23.88
2022-08-27T18:55:52.287Z,19.88
2022-08-27T18:58:32.202Z,20.58
2022-08-27T19:01:03.425Z,19.50
2022-08-27T19:03:36.627Z,30.83
2022-08-27T19:06:08.697Z,20.40
2022-08-27T19:08:39.869Z,22.42
2022-08-27T19:11:07.466Z,21.15
2022-08-27T19:13:34.738Z,17.33
2022-08-27T19:16:08.509Z,20.90
2022-08-27T19:18:38.311Z,14.85
2022-08-27T19:21:07.434Z,18.52
2022-08-27T19:23:36.435Z,21.50
2022-08-27T19:26:05.553Z,24.33
2022-08-27T19:28:39.534Z,18.90
2022-08-27T19:31:08.495Z,25.38
2022-08-27T19:33:36.652Z,23.27
2022-08-27T19:36:05.509Z,19.17
2022-08-27T19:38:34.301Z,25.80
2022-08-27T19:41:02.882Z,21.13
2022-08-27T19:43:30.645Z,18.25
2022-08-27T19:45:59.800Z,21.23
2022-08-27T19:48:26.847Z,23.92
2022-08-27T19:50:53.977Z,41.13
2022-08-27T19:53:21.281Z,17.73
2022-08-27T19:55:49.137Z,24.58
2022-08-27T19:58:18.944Z,23.50
2022-08-27T20:00:47.166Z,27.40
2022-08-27T20:03:15.877Z,25.40
2022-08-27T20:05:48.360Z,22.25
2022-08-27T20:08:16.618Z,19.95
2022-08-27T20:10:46.589Z,23.10
2022-08-27T20:13:13.969Z,21.77
2022-08-27T20:15:41.573Z,20.90
2022-08-27T20:18:10.391Z,22.73
2022-08-27T20:20:38.115Z,26.13
2022-08-27T20:23:06.849Z,20.25
2022-08-27T20:25:35.408Z,28.85
2022-08-27T20:28:12.435Z,23.98
2022-08-27T20:30:49.473Z,20.73
2022-08-27T20:33:16.940Z,23.20
2022-08-27T20:35:44.719Z,22.80
2022-08-27T20:38:12.049Z,30.20
2022-08-27T20:40:39.253Z,23.00
2022-08-27T20:43:06.350Z,29.88
2022-08-27T20:45:35.748Z,25.23
2022-08-27T20:48:04.818Z,22.27
2022-08-27T20:50:31.801Z,29.50
2022-08-27T20:52:59.176Z,29.38
2022-08-27T20:55:26.300Z,23.02
2022-08-27T20:58:11.848Z,32.90
2022-08-27T21:00:41.713Z,24.65
2022-08-27T21:03:11.669Z,24.40
2022-08-27T21:05:41.518Z,25.73
2022-08-27T21:08:08.932Z,24.58
2022-08-27T21:10:36.042Z,18.98
2022-08-27T21:13:07.346Z,24.80
2022-08-27T21:15:37.148Z,22.02
2022-08-27T21:18:04.251Z,22.48
2022-08-27T21:20:32.419Z,26.65
2022-08-27T21:23:00.353Z,19.90
2022-08-27T21:25:27.822Z,27.13
2022-08-27T21:28:00.441Z,23.80
2022-08-27T21:30:28.405Z,31.48
2022-08-27T21:32:56.156Z,27.17
2022-08-27T21:35:26.640Z,26.20
2022-08-27T21:37:59.316Z,25.88
2022-08-27T21:40:28.414Z,22.33
2022-08-27T21:42:58.434Z,23.70
2022-08-27T21:45:27.120Z,19.33
2022-08-27T21:48:18.484Z,21.42
2022-08-27T21:50:46.275Z,25.65
2022-08-27T21:53:13.497Z,24.80
2022-08-27T21:55:40.514Z,19.17
2022-08-27T21:58:10.850Z,24.95
2022-08-27T22:00:45.952Z,24.48
2022-08-27T22:03:20.160Z,23.15
2022-08-27T22:05:48.977Z,30.02
2022-08-27T22:08:20.139Z,19.10
2022-08-27T22:10:49.706Z,28.33
2022-08-27T22:13:17.019Z,31.40
2022-08-27T22:15:45.664Z,20.25
2022-08-27T22:18:13.528Z,27.08
2022-08-27T22:20:41.432Z,24.95
2022-08-27T22:23:11.540Z,21.55
2022-08-27T22:25:39.371Z,25.42
2022-08-27T22:28:06.392Z,25.60
2022-08-27T22:30:34.239Z,25.42
2022-08-27T22:33:02.013Z,23.77
2022-08-27T22:35:29.249Z,25.13
2022-08-27T22:37:56.549Z,28.48
2022-08-27T22:40:26.506Z,23.13
2022-08-27T22:42:56.252Z,25.65
2022-08-27T22:45:24.471Z,26.58
2022-08-27T22:47:51.498Z,28.27
2022-08-27T22:50:18.728Z,25.48
2022-08-27T22:52:46.560Z,32.40
2022-08-27T22:55:18.851Z,24.50
2022-08-27T22:57:51.182Z,27.45
2022-08-27T23:00:23.657Z,27.25
2022-08-27T23:02:50.811Z,27.17
2022-08-27T23:05:18.579Z,31.60
2022-08-27T23:07:47.355Z,28.25
2022-08-27T23:10:17.465Z,29.98
2022-08-27T23:12:46.700Z,31.98
2022-08-27T23:15:16.671Z,23.98
2022-08-27T23:17:44.581Z,25.42
2022-08-27T23:20:14.510Z,22.83
2022-08-27T23:22:42.541Z,29.65
2022-08-27T23:25:30.136Z,34.28
2022-08-27T23:27:59.747Z,26.90
2022-08-27T23:30:28.198Z,24.80
2022-08-27T23:32:55.803Z,23.73
2022-08-27T23:35:25.181Z,25.10
2022-08-27T23:37:53.079Z,24.90
2022-08-27T23:40:21.378Z,19.95
2022-08-27T23:42:49.835Z,27.63
2022-08-27T23:45:21.495Z,26.90
2022-08-27T23:47:48.869Z,30.02
2022-08-27T23:50:16.619Z,28.23
2022-08-27T23:52:44.072Z,29.83
2022-08-27T23:55:12.041Z,27.60
2022-08-27T23:57:39.953Z,27.30
